Historyczne dane pomiarowe

Dodano dane terminowe – wersja testowa.

Dane z okresu 1951-2019

Wersja bazy: 1.34 [2019-03-16, lista zmian], aktualizacja planowana na 2019-04-15

Dane meteo z obszaru Polski uzyskane na podstawie danych udostępnionych przez Instytut Meteorologii i Gospodarki Wodnej – Państwowy Instytut Badawczy.

 

Wybierz Datę:    

       

TemperaturaWilgotnośćWiatrCiśnienieOpadyŚniegCzas trwania zjawisk
 Stacja t tx tn tng RH VA  wxwx mslp ppp RRR   cm mm wxwxwxwxwxwxwx
1999-08-14 13.3 19.8 6.5 1.7 73.5- 2.0 2.7---- 0.8------------
1999-08-13 11.0 15.3 8.0 6.6 81.8- 3.7 1.7---- 0.0------------
1999-08-12 12.3 15.7 10.2 8.7 80.3- 6.3 3.0---- 0.0------------
1999-08-11 15.2 19.3 12.2 12.2 85.0- 5.7 3.0---- 10.5------------
1999-08-10 17.9 21.5 16.2 14.8 78.3- 5.0 4.7---- 0.8------------
1999-08-09 19.8 24.2 16.0 13.7 78.5- 4.0 4.0---- 0.9------------
1999-08-08 20.4 26.6 14.8 12.3 74.3- 0.3 4.7---- 0.0------------
1999-08-07 19.2 25.3 14.1 11.8 83.8- 5.0 2.0---- 1.3------------
1999-08-06 19.1 24.1 15.4 13.1 78.0- 1.3 3.7---- 0.0------------
1999-08-05 18.8 23.8 12.7 9.8 61.3- 3.0 2.7---- 0.0------------
1999-08-04 18.2 25.1 13.2 9.6 55.8- 0.7 2.0---- 0.0------------
1999-08-03 16.9 24.3 10.7 8.5 58.0- 0.0 2.3---- 0.0------------
1999-08-02 17.2 23.8 11.4 9.1 64.0- 0.3 2.0---- 0.0------------
1999-08-01 17.0 23.8 10.8 9.2 65.0- 0.7 2.3---- 0.0------------
1999-07-31 17.0 23.7 11.2 9.1 69.0- 1.0 1.3---- 0.0------------
1999-07-30 15.9 22.7 9.9 7.7 74.8- 0.3 2.7---- 0.0------------
1999-07-29 16.2 21.8 10.3 6.9 75.5- 1.3 5.0---- 0.0------------
1999-07-28 15.3 20.8 8.8 7.2 73.5- 0.3 2.7---- 0.0------------
1999-07-27 15.2 19.8 12.3 12.3 80.0- 5.7 2.0---- 0.0------------
1999-07-26 19.1 25.3 12.7 11.2 76.5- 2.7 1.3---- 0.0------------
1999-07-25 17.1 22.6 12.2 11.6 79.3- 2.7 3.0---- 0.0------------
1999-07-24 13.7 16.8 10.9 10.4 80.5- 5.3 2.0---- 0.0------------
1999-07-23 13.0 16.4 10.9 9.9 76.0- 6.3 3.0---- 3.1------------
1999-07-22 14.8 19.8 11.7 10.8 69.3- 3.3 3.0---- 0.0------------
1999-07-21 20.4 24.3 17.1 14.3 69.3- 1.0 4.0---- 0.6------------
1999-07-20 21.8 27.9 18.3 15.7 61.0- 0.7 6.0---- 2.0------------
1999-07-19 20.9 26.9 15.1 12.2 59.0- 0.7 3.0---- 0.0------------
1999-07-18 19.1 25.4 13.3 10.4 66.0- 2.0 2.3---- 0.0------------
1999-07-17 15.9 22.2 9.0 6.1 74.8- 0.3 2.3---- 0.0------------
1999-07-16 14.0 18.8 9.7 8.1 78.5- 2.7 3.3---- 0.0------------
1999-07-15 13.5 17.3 10.3 9.2 81.3- 5.7 4.7---- 0.0------------
1999-07-14 17.4 20.7 14.4 13.9 88.3- 5.0 3.7---- 9.7------------
1999-07-13 19.9 24.2 16.2 14.2 84.0- 6.0 3.0---- 1.2------------
1999-07-12 19.2 22.8 15.0 12.8 83.0- 5.0 2.0---- 1.2------------
1999-07-11 17.4 20.8 14.4 12.4 86.8- 4.0 3.0---- 0.3------------
1999-07-10 18.6 21.6 15.6 14.0 86.0- 5.0 2.3---- 0.0------------
1999-07-09 15.1 16.8 12.5 12.5 95.8- 8.0 3.0---- 3.7------------
1999-07-08 13.2 14.3 12.2 12.2 94.3- 8.0 0.7---- 21.0------------
1999-07-07 14.8 19.1 12.4 12.4 94.5- 8.0 1.3---- 4.4------------
1999-07-06 20.0 25.7 16.9 15.9 92.8- 7.0 1.3---- 45.2------------
1999-07-05 24.2 29.1 18.1 16.2 65.5- 2.3 10.0---- 5.2------------
1999-07-04 24.1 29.6 18.7 16.1 67.5- 1.0 3.0---- 0.0------------
1999-07-03 18.7 25.3 10.5 7.9 77.0- 1.0 1.3---- 0.0------------
1999-07-02 16.4 19.8 13.2 10.7 87.0- 3.3 1.3---- 1.7------------
1999-07-01 16.6 20.3 13.5 13.1 86.5- 6.0 0.7---- 0.1------------
1999-06-30 18.2 24.7 11.9 9.8 68.8- 3.0 1.3---- 3.1------------
1999-06-29 15.3 21.4 9.5 6.6 68.5- 2.0 3.0---- 0.0------------
1999-06-28 17.7 22.3 15.3 12.7 78.3- 4.7 3.0---- 0.4------------
1999-06-27 16.7 21.8 13.9 12.7 87.8- 6.3 5.3---- 0.0------------
1999-06-26 12.9 20.7 5.0 3.6 86.5- 1.0 3.0---- 0.5------------
1999-06-25 10.4 15.8 5.0 1.6 86.8- 5.7 2.0---- 2.6------------
1999-06-24 11.0 16.1 5.5 2.6 85.3- 6.3 0.7---- 0.0------------
1999-06-23 10.5 14.3 7.1 5.9 81.3- 4.0 3.7---- 0.0------------
1999-06-22 8.7 11.2 7.4 7.4 93.0- 8.0 5.7---- 1.5------------
1999-06-21 12.9 17.2 9.9 9.8 92.5- 7.7 3.0---- 8.6------------
1999-06-20 15.3 19.6 9.8 8.7 83.0- 2.3 3.0---- 0.5------------
1999-06-19 12.8 16.3 9.5 9.2 94.3- 6.3 1.3---- 0.0------------
1999-06-18 11.8 16.2 9.8 6.2 96.5- 8.0 2.0---- 25.5------------
1999-06-17 15.6 20.3 11.3 7.2 89.3- 5.0 2.3---- 6.2------------
1999-06-16 15.4 19.5 12.2 11.0 91.0- 5.7 2.0---- 0.0------------
2414.1 ms

 

Źródłem pochodzenia danych jest Instytut Meteorologii i Gospodarki Wodnej – Państwowy Instytut Badawczy. Dane Instytutu Meteorologii i Gospodarki Wodnej – Państwowego Instytutu Badawczego zostały przetworzone.

Dane źródłowe można odnaleźć na stronie https://dane.imgw.pl